sensor_id;sensor_type;location;lat;lon;timestamp;P1;durP1;ratioP1;P2;durP2;ratioP2
15071;SDS011;7635;56.696;13.002;2023-04-09T00:00:02;2.03;;;1.83;;
15071;SDS011;7635;56.696;13.002;2023-04-09T00:02:29;2.47;;;1.90;;
15071;SDS011;7635;56.696;13.002;2023-04-09T00:04:56;2.00;;;1.73;;
15071;SDS011;7635;56.696;13.002;2023-04-09T00:07:22;2.30;;;2.00;;
15071;SDS011;7635;56.696;13.002;2023-04-09T00:09:49;2.47;;;2.07;;
15071;SDS011;7635;56.696;13.002;2023-04-09T00:12:17;3.07;;;2.17;;
15071;SDS011;7635;56.696;13.002;2023-04-09T00:14:44;2.70;;;2.13;;
15071;SDS011;7635;56.696;13.002;2023-04-09T00:17:10;2.40;;;2.07;;
15071;SDS011;7635;56.696;13.002;2023-04-09T00:19:37;2.57;;;2.00;;
15071;SDS011;7635;56.696;13.002;2023-04-09T00:22:04;2.83;;;2.00;;
15071;SDS011;7635;56.696;13.002;2023-04-09T00:24:31;1.90;;;1.70;;
15071;SDS011;7635;56.696;13.002;2023-04-09T00:26:57;2.23;;;1.97;;
15071;SDS011;7635;56.696;13.002;2023-04-09T00:29:25;2.10;;;1.90;;
15071;SDS011;7635;56.696;13.002;2023-04-09T00:31:52;3.23;;;1.90;;
15071;SDS011;7635;56.696;13.002;2023-04-09T00:34:19;3.23;;;1.90;;
15071;SDS011;7635;56.696;13.002;2023-04-09T00:36:45;2.17;;;1.97;;
15071;SDS011;7635;56.696;13.002;2023-04-09T00:39:12;1.97;;;1.80;;
15071;SDS011;7635;56.696;13.002;2023-04-09T00:41:39;2.20;;;1.80;;
15071;SDS011;7635;56.696;13.002;2023-04-09T00:44:06;2.83;;;1.90;;
15071;SDS011;7635;56.696;13.002;2023-04-09T00:46:34;1.70;;;1.60;;
15071;SDS011;7635;56.696;13.002;2023-04-09T00:49:00;1.57;;;1.47;;
15071;SDS011;7635;56.696;13.002;2023-04-09T00:51:27;1.70;;;1.60;;
15071;SDS011;7635;56.696;13.002;2023-04-09T00:53:55;3.00;;;1.90;;
15071;SDS011;7635;56.696;13.002;2023-04-09T00:56:22;1.93;;;1.63;;
15071;SDS011;7635;56.696;13.002;2023-04-09T00:58:49;1.73;;;1.60;;
15071;SDS011;7635;56.696;13.002;2023-04-09T01:01:16;1.93;;;1.70;;
15071;SDS011;7635;56.696;13.002;2023-04-09T01:03:44;2.40;;;1.60;;
15071;SDS011;7635;56.696;13.002;2023-04-09T01:06:14;3.03;;;1.90;;
15071;SDS011;7635;56.696;13.002;2023-04-09T01:08:48;1.80;;;1.67;;
15071;SDS011;7635;56.696;13.002;2023-04-09T01:11:23;2.03;;;1.83;;
15071;SDS011;7635;56.696;13.002;2023-04-09T01:13:58;2.33;;;1.60;;
15071;SDS011;7635;56.696;13.002;2023-04-09T01:16:31;2.33;;;1.40;;
15071;SDS011;7635;56.696;13.002;2023-04-09T01:19:04;2.80;;;1.97;;
15071;SDS011;7635;56.696;13.002;2023-04-09T01:21:35;1.43;;;1.37;;
15071;SDS011;7635;56.696;13.002;2023-04-09T01:24:08;2.47;;;1.77;;
15071;SDS011;7635;56.696;13.002;2023-04-09T01:26:52;1.60;;;1.40;;
15071;SDS011;7635;56.696;13.002;2023-04-09T01:29:23;1.73;;;1.50;;
15071;SDS011;7635;56.696;13.002;2023-04-09T01:31:52;2.00;;;1.70;;
15071;SDS011;7635;56.696;13.002;2023-04-09T01:34:20;3.07;;;1.87;;
15071;SDS011;7635;56.696;13.002;2023-04-09T01:36:49;1.77;;;1.57;;
15071;SDS011;7635;56.696;13.002;2023-04-09T01:39:19;2.20;;;1.73;;
15071;SDS011;7635;56.696;13.002;2023-04-09T01:41:46;1.93;;;1.80;;
15071;SDS011;7635;56.696;13.002;2023-04-09T01:44:14;1.80;;;1.50;;
15071;SDS011;7635;56.696;13.002;2023-04-09T01:46:43;2.03;;;1.70;;
15071;SDS011;7635;56.696;13.002;2023-04-09T01:49:11;1.70;;;1.60;;
15071;SDS011;7635;56.696;13.002;2023-04-09T01:51:39;2.17;;;1.60;;
15071;SDS011;7635;56.696;13.002;2023-04-09T01:54:06;1.73;;;1.40;;
15071;SDS011;7635;56.696;13.002;2023-04-09T01:56:40;1.73;;;1.40;;
15071;SDS011;7635;56.696;13.002;2023-04-09T01:59:07;1.87;;;1.60;;
15071;SDS011;7635;56.696;13.002;2023-04-09T02:01:34;1.83;;;1.73;;
15071;SDS011;7635;56.696;13.002;2023-04-09T02:04:08;1.93;;;1.50;;
15071;SDS011;7635;56.696;13.002;2023-04-09T02:06:40;1.77;;;1.67;;
15071;SDS011;7635;56.696;13.002;2023-04-09T02:09:12;1.50;;;1.40;;
15071;SDS011;7635;56.696;13.002;2023-04-09T02:11:43;1.93;;;1.73;;
15071;SDS011;7635;56.696;13.002;2023-04-09T02:14:12;4.00;;;1.53;;
15071;SDS011;7635;56.696;13.002;2023-04-09T02:16:41;1.50;;;1.40;;
15071;SDS011;7635;56.696;13.002;2023-04-09T02:19:09;1.57;;;1.47;;
15071;SDS011;7635;56.696;13.002;2023-04-09T02:21:36;2.67;;;1.63;;
15071;SDS011;7635;56.696;13.002;2023-04-09T02:24:02;1.80;;;1.60;;
15071;SDS011;7635;56.696;13.002;2023-04-09T02:26:29;1.80;;;1.70;;
15071;SDS011;7635;56.696;13.002;2023-04-09T02:28:56;1.83;;;1.70;;
15071;SDS011;7635;56.696;13.002;2023-04-09T02:31:23;3.13;;;1.80;;
15071;SDS011;7635;56.696;13.002;2023-04-09T02:33:49;1.83;;;1.70;;
15071;SDS011;7635;56.696;13.002;2023-04-09T02:36:19;1.80;;;1.70;;
15071;SDS011;7635;56.696;13.002;2023-04-09T02:38:46;1.93;;;1.30;;
15071;SDS011;7635;56.696;13.002;2023-04-09T02:41:13;2.23;;;1.63;;
15071;SDS011;7635;56.696;13.002;2023-04-09T02:43:39;1.70;;;1.57;;
15071;SDS011;7635;56.696;13.002;2023-04-09T02:46:06;2.00;;;1.80;;
15071;SDS011;7635;56.696;13.002;2023-04-09T02:48:33;1.70;;;1.60;;
15071;SDS011;7635;56.696;13.002;2023-04-09T02:51:00;1.90;;;1.70;;
15071;SDS011;7635;56.696;13.002;2023-04-09T02:53:28;1.67;;;1.57;;
15071;SDS011;7635;56.696;13.002;2023-04-09T02:55:54;2.43;;;1.50;;
15071;SDS011;7635;56.696;13.002;2023-04-09T02:58:21;1.67;;;1.57;;
15071;SDS011;7635;56.696;13.002;2023-04-09T03:00:48;1.57;;;1.47;;
15071;SDS011;7635;56.696;13.002;2023-04-09T03:03:14;1.63;;;1.53;;
15071;SDS011;7635;56.696;13.002;2023-04-09T03:05:41;1.60;;;1.50;;
15071;SDS011;7635;56.696;13.002;2023-04-09T03:08:08;1.50;;;1.40;;
15071;SDS011;7635;56.696;13.002;2023-04-09T03:10:36;2.87;;;1.60;;
15071;SDS011;7635;56.696;13.002;2023-04-09T03:13:03;2.13;;;1.93;;
15071;SDS011;7635;56.696;13.002;2023-04-09T03:15:29;1.73;;;1.60;;
15071;SDS011;7635;56.696;13.002;2023-04-09T03:17:56;1.40;;;1.30;;
15071;SDS011;7635;56.696;13.002;2023-04-09T03:20:23;1.50;;;1.40;;
15071;SDS011;7635;56.696;13.002;2023-04-09T03:22:49;1.67;;;1.50;;
15071;SDS011;7635;56.696;13.002;2023-04-09T03:25:16;1.70;;;1.60;;
15071;SDS011;7635;56.696;13.002;2023-04-09T03:27:46;1.63;;;1.53;;
15071;SDS011;7635;56.696;13.002;2023-04-09T03:30:12;1.40;;;1.30;;
15071;SDS011;7635;56.696;13.002;2023-04-09T03:32:39;1.90;;;1.63;;
15071;SDS011;7635;56.696;13.002;2023-04-09T03:35:06;1.63;;;1.50;;
15071;SDS011;7635;56.696;13.002;2023-04-09T03:37:33;1.90;;;1.50;;
15071;SDS011;7635;56.696;13.002;2023-04-09T03:40:00;2.20;;;1.63;;
15071;SDS011;7635;56.696;13.002;2023-04-09T03:42:27;1.60;;;1.50;;
15071;SDS011;7635;56.696;13.002;2023-04-09T03:44:56;1.40;;;1.30;;
15071;SDS011;7635;56.696;13.002;2023-04-09T03:47:22;1.50;;;1.40;;
15071;SDS011;7635;56.696;13.002;2023-04-09T03:49:49;1.70;;;1.60;;
15071;SDS011;7635;56.696;13.002;2023-04-09T03:52:16;1.57;;;1.47;;
15071;SDS011;7635;56.696;13.002;2023-04-09T03:54:42;2.27;;;1.77;;
15071;SDS011;7635;56.696;13.002;2023-04-09T03:57:09;1.60;;;1.50;;
15071;SDS011;7635;56.696;13.002;2023-04-09T03:59:36;1.60;;;1.50;;
15071;SDS011;7635;56.696;13.002;2023-04-09T04:02:04;1.70;;;1.60;;
15071;SDS011;7635;56.696;13.002;2023-04-09T04:04:30;1.63;;;1.53;;
15071;SDS011;7635;56.696;13.002;2023-04-09T04:06:57;1.43;;;1.33;;
15071;SDS011;7635;56.696;13.002;2023-04-09T04:09:24;1.53;;;1.43;;
15071;SDS011;7635;56.696;13.002;2023-04-09T04:11:50;1.60;;;1.50;;
15071;SDS011;7635;56.696;13.002;2023-04-09T04:14:17;1.47;;;1.37;;
15071;SDS011;7635;56.696;13.002;2023-04-09T04:16:44;1.73;;;1.50;;
15071;SDS011;7635;56.696;13.002;2023-04-09T04:19:12;1.90;;;1.33;;
15071;SDS011;7635;56.696;13.002;2023-04-09T04:21:39;2.70;;;1.50;;
15071;SDS011;7635;56.696;13.002;2023-04-09T04:24:05;1.50;;;1.40;;
15071;SDS011;7635;56.696;13.002;2023-04-09T04:26:32;1.37;;;1.27;;
15071;SDS011;7635;56.696;13.002;2023-04-09T04:28:59;1.50;;;1.40;;
15071;SDS011;7635;56.696;13.002;2023-04-09T04:31:25;1.67;;;1.53;;
15071;SDS011;7635;56.696;13.002;2023-04-09T04:33:52;1.67;;;1.57;;
15071;SDS011;7635;56.696;13.002;2023-04-09T04:36:20;1.50;;;1.40;;
15071;SDS011;7635;56.696;13.002;2023-04-09T04:38:46;1.93;;;1.60;;
15071;SDS011;7635;56.696;13.002;2023-04-09T04:41:13;1.60;;;1.40;;
15071;SDS011;7635;56.696;13.002;2023-04-09T04:43:40;2.03;;;1.60;;
15071;SDS011;7635;56.696;13.002;2023-04-09T04:46:07;1.30;;;1.20;;
15071;SDS011;7635;56.696;13.002;2023-04-09T04:48:33;1.60;;;1.50;;
15071;SDS011;7635;56.696;13.002;2023-04-09T04:51:00;3.03;;;1.47;;
15071;SDS011;7635;56.696;13.002;2023-04-09T04:53:28;1.60;;;1.30;;
15071;SDS011;7635;56.696;13.002;2023-04-09T04:55:55;1.57;;;1.47;;
15071;SDS011;7635;56.696;13.002;2023-04-09T04:58:22;1.50;;;1.40;;
15071;SDS011;7635;56.696;13.002;2023-04-09T05:00:49;1.50;;;1.40;;
15071;SDS011;7635;56.696;13.002;2023-04-09T05:03:16;1.40;;;1.30;;
15071;SDS011;7635;56.696;13.002;2023-04-09T05:05:43;1.40;;;1.30;;
15071;SDS011;7635;56.696;13.002;2023-04-09T05:08:10;1.60;;;1.37;;
15071;SDS011;7635;56.696;13.002;2023-04-09T05:10:40;2.60;;;1.20;;
15071;SDS011;7635;56.696;13.002;2023-04-09T05:13:07;1.23;;;1.10;;
15071;SDS011;7635;56.696;13.002;2023-04-09T05:15:36;1.60;;;1.13;;
15071;SDS011;7635;56.696;13.002;2023-04-09T05:18:03;1.50;;;1.40;;
15071;SDS011;7635;56.696;13.002;2023-04-09T05:20:30;1.30;;;1.23;;
15071;SDS011;7635;56.696;13.002;2023-04-09T05:22:57;1.23;;;1.10;;
15071;SDS011;7635;56.696;13.002;2023-04-09T05:25:24;1.30;;;1.20;;
15071;SDS011;7635;56.696;13.002;2023-04-09T05:27:52;1.40;;;1.30;;
15071;SDS011;7635;56.696;13.002;2023-04-09T05:30:18;1.30;;;1.20;;
15071;SDS011;7635;56.696;13.002;2023-04-09T05:32:46;1.10;;;1.10;;
15071;SDS011;7635;56.696;13.002;2023-04-09T05:35:12;1.40;;;1.30;;
15071;SDS011;7635;56.696;13.002;2023-04-09T05:37:39;1.40;;;1.30;;
15071;SDS011;7635;56.696;13.002;2023-04-09T05:40:06;1.30;;;1.23;;
15071;SDS011;7635;56.696;13.002;2023-04-09T05:42:33;1.63;;;1.30;;
15071;SDS011;7635;56.696;13.002;2023-04-09T05:45:02;1.50;;;1.40;;
15071;SDS011;7635;56.696;13.002;2023-04-09T05:47:29;1.20;;;1.20;;
15071;SDS011;7635;56.696;13.002;2023-04-09T05:49:55;1.30;;;1.20;;
15071;SDS011;7635;56.696;13.002;2023-04-09T05:52:22;1.10;;;1.10;;
15071;SDS011;7635;56.696;13.002;2023-04-09T05:54:49;1.40;;;1.30;;
15071;SDS011;7635;56.696;13.002;2023-04-09T05:57:15;1.20;;;1.20;;
15071;SDS011;7635;56.696;13.002;2023-04-09T05:59:42;1.40;;;1.30;;
15071;SDS011;7635;56.696;13.002;2023-04-09T06:02:10;1.47;;;1.27;;
15071;SDS011;7635;56.696;13.002;2023-04-09T06:04:37;1.37;;;1.23;;
15071;SDS011;7635;56.696;13.002;2023-04-09T06:07:03;1.27;;;1.20;;
15071;SDS011;7635;56.696;13.002;2023-04-09T06:09:30;1.30;;;1.20;;
15071;SDS011;7635;56.696;13.002;2023-04-09T06:11:57;1.33;;;1.23;;
15071;SDS011;7635;56.696;13.002;2023-04-09T06:14:23;1.20;;;1.20;;
15071;SDS011;7635;56.696;13.002;2023-04-09T06:16:50;1.40;;;1.30;;
15071;SDS011;7635;56.696;13.002;2023-04-09T06:19:18;1.27;;;1.13;;
15071;SDS011;7635;56.696;13.002;2023-04-09T06:21:45;1.60;;;1.20;;
15071;SDS011;7635;56.696;13.002;2023-04-09T06:24:11;1.97;;;1.10;;
15071;SDS011;7635;56.696;13.002;2023-04-09T06:26:38;1.10;;;1.10;;
15071;SDS011;7635;56.696;13.002;2023-04-09T06:29:05;1.10;;;1.10;;
15071;SDS011;7635;56.696;13.002;2023-04-09T06:31:32;1.27;;;1.27;;
15071;SDS011;7635;56.696;13.002;2023-04-09T06:33:58;1.33;;;1.20;;
15071;SDS011;7635;56.696;13.002;2023-04-09T06:36:27;1.17;;;1.07;;
15071;SDS011;7635;56.696;13.002;2023-04-09T06:38:54;1.40;;;1.30;;
15071;SDS011;7635;56.696;13.002;2023-04-09T06:41:21;0.90;;;0.90;;
15071;SDS011;7635;56.696;13.002;2023-04-09T06:43:48;0.90;;;0.90;;
15071;SDS011;7635;56.696;13.002;2023-04-09T06:46:15;0.83;;;0.83;;
15071;SDS011;7635;56.696;13.002;2023-04-09T06:48:44;1.20;;;1.20;;
15071;SDS011;7635;56.696;13.002;2023-04-09T06:51:11;1.23;;;1.20;;
15071;SDS011;7635;56.696;13.002;2023-04-09T06:53:40;1.30;;;1.20;;
15071;SDS011;7635;56.696;13.002;2023-04-09T06:56:06;1.23;;;1.10;;
15071;SDS011;7635;56.696;13.002;2023-04-09T06:58:33;1.17;;;1.17;;
15071;SDS011;7635;56.696;13.002;2023-04-09T07:01:00;0.80;;;0.80;;
15071;SDS011;7635;56.696;13.002;2023-04-09T07:03:27;1.00;;;1.00;;
15071;SDS011;7635;56.696;13.002;2023-04-09T07:05:54;1.00;;;1.00;;
15071;SDS011;7635;56.696;13.002;2023-04-09T07:08:21;1.20;;;1.20;;
15071;SDS011;7635;56.696;13.002;2023-04-09T07:10:49;1.03;;;1.00;;
15071;SDS011;7635;56.696;13.002;2023-04-09T07:13:16;1.67;;;1.17;;
15071;SDS011;7635;56.696;13.002;2023-04-09T07:15:43;0.83;;;0.83;;
15071;SDS011;7635;56.696;13.002;2023-04-09T07:18:10;1.20;;;1.10;;
15071;SDS011;7635;56.696;13.002;2023-04-09T07:20:36;1.10;;;1.10;;
15071;SDS011;7635;56.696;13.002;2023-04-09T07:23:03;0.97;;;0.97;;
15071;SDS011;7635;56.696;13.002;2023-04-09T07:25:30;1.00;;;1.00;;
15071;SDS011;7635;56.696;13.002;2023-04-09T07:27:58;1.10;;;1.10;;
15071;SDS011;7635;56.696;13.002;2023-04-09T07:30:25;1.03;;;1.03;;
15071;SDS011;7635;56.696;13.002;2023-04-09T07:32:51;1.03;;;1.03;;
15071;SDS011;7635;56.696;13.002;2023-04-09T07:35:19;0.93;;;0.93;;
15071;SDS011;7635;56.696;13.002;2023-04-09T07:37:45;1.03;;;1.03;;
15071;SDS011;7635;56.696;13.002;2023-04-09T07:40:12;1.03;;;1.00;;
15071;SDS011;7635;56.696;13.002;2023-04-09T07:42:39;1.50;;;1.40;;
15071;SDS011;7635;56.696;13.002;2023-04-09T07:45:08;1.20;;;1.20;;
15071;SDS011;7635;56.696;13.002;2023-04-09T07:47:35;0.97;;;0.97;;
15071;SDS011;7635;56.696;13.002;2023-04-09T07:50:01;1.30;;;1.20;;
15071;SDS011;7635;56.696;13.002;2023-04-09T07:52:28;0.93;;;0.93;;
15071;SDS011;7635;56.696;13.002;2023-04-09T07:54:55;0.80;;;0.80;;
15071;SDS011;7635;56.696;13.002;2023-04-09T07:57:22;2.37;;;1.10;;
15071;SDS011;7635;56.696;13.002;2023-04-09T07:59:48;1.07;;;1.03;;
15071;SDS011;7635;56.696;13.002;2023-04-09T08:02:17;1.30;;;1.17;;
15071;SDS011;7635;56.696;13.002;2023-04-09T08:04:43;1.20;;;1.10;;
15071;SDS011;7635;56.696;13.002;2023-04-09T08:07:10;1.17;;;1.13;;
15071;SDS011;7635;56.696;13.002;2023-04-09T08:09:37;1.37;;;1.20;;
15071;SDS011;7635;56.696;13.002;2023-04-09T08:12:04;1.10;;;1.00;;
15071;SDS011;7635;56.696;13.002;2023-04-09T08:14:31;0.80;;;0.80;;
15071;SDS011;7635;56.696;13.002;2023-04-09T08:16:58;1.53;;;1.20;;
15071;SDS011;7635;56.696;13.002;2023-04-09T08:19:26;1.30;;;1.10;;
15071;SDS011;7635;56.696;13.002;2023-04-09T08:21:53;0.90;;;0.90;;
15071;SDS011;7635;56.696;13.002;2023-04-09T08:24:20;1.43;;;1.33;;
15071;SDS011;7635;56.696;13.002;2023-04-09T08:26:47;1.43;;;1.30;;
15071;SDS011;7635;56.696;13.002;2023-04-09T08:29:14;0.90;;;0.90;;
15071;SDS011;7635;56.696;13.002;2023-04-09T08:31:40;1.37;;;1.30;;
15071;SDS011;7635;56.696;13.002;2023-04-09T08:34:07;1.20;;;1.17;;
15071;SDS011;7635;56.696;13.002;2023-04-09T08:36:35;1.23;;;1.13;;
15071;SDS011;7635;56.696;13.002;2023-04-09T08:39:02;1.30;;;1.20;;
15071;SDS011;7635;56.696;13.002;2023-04-09T08:41:29;1.30;;;1.20;;
15071;SDS011;7635;56.696;13.002;2023-04-09T08:43:56;1.30;;;1.30;;
15071;SDS011;7635;56.696;13.002;2023-04-09T08:46:24;3.67;;;1.20;;
15071;SDS011;7635;56.696;13.002;2023-04-09T08:48:52;1.00;;;0.97;;
15071;SDS011;7635;56.696;13.002;2023-04-09T08:51:19;1.17;;;1.10;;
15071;SDS011;7635;56.696;13.002;2023-04-09T08:53:50;1.20;;;1.13;;
15071;SDS011;7635;56.696;13.002;2023-04-09T08:56:21;1.30;;;1.20;;
15071;SDS011;7635;56.696;13.002;2023-04-09T08:58:48;1.23;;;1.13;;
15071;SDS011;7635;56.696;13.002;2023-04-09T09:01:21;1.17;;;1.07;;
15071;SDS011;7635;56.696;13.002;2023-04-09T09:03:56;0.97;;;0.97;;
15071;SDS011;7635;56.696;13.002;2023-04-09T09:06:25;1.00;;;1.00;;
15071;SDS011;7635;56.696;13.002;2023-04-09T09:09:04;1.00;;;1.00;;
15071;SDS011;7635;56.696;13.002;2023-04-09T09:11:33;0.90;;;0.90;;
15071;SDS011;7635;56.696;13.002;2023-04-09T09:14:00;1.40;;;1.30;;
15071;SDS011;7635;56.696;13.002;2023-04-09T09:16:29;1.50;;;1.37;;
15071;SDS011;7635;56.696;13.002;2023-04-09T09:18:57;1.10;;;1.00;;
15071;SDS011;7635;56.696;13.002;2023-04-09T09:21:24;1.27;;;1.13;;
15071;SDS011;7635;56.696;13.002;2023-04-09T09:23:52;1.20;;;1.20;;
15071;SDS011;7635;56.696;13.002;2023-04-09T09:26:22;1.03;;;1.03;;
15071;SDS011;7635;56.696;13.002;2023-04-09T09:28:50;1.37;;;1.27;;
15071;SDS011;7635;56.696;13.002;2023-04-09T09:31:17;2.10;;;1.50;;
15071;SDS011;7635;56.696;13.002;2023-04-09T09:33:45;1.30;;;1.20;;
15071;SDS011;7635;56.696;13.002;2023-04-09T09:36:12;1.40;;;1.30;;
15071;SDS011;7635;56.696;13.002;2023-04-09T09:38:49;1.23;;;1.13;;
15071;SDS011;7635;56.696;13.002;2023-04-09T09:41:18;1.20;;;1.10;;
15071;SDS011;7635;56.696;13.002;2023-04-09T09:43:46;1.70;;;1.30;;
15071;SDS011;7635;56.696;13.002;2023-04-09T09:46:14;1.30;;;1.20;;
15071;SDS011;7635;56.696;13.002;2023-04-09T09:48:41;1.17;;;1.10;;
15071;SDS011;7635;56.696;13.002;2023-04-09T09:51:11;1.30;;;1.20;;
15071;SDS011;7635;56.696;13.002;2023-04-09T09:53:39;1.40;;;1.30;;
15071;SDS011;7635;56.696;13.002;2023-04-09T09:56:10;1.43;;;1.33;;
15071;SDS011;7635;56.696;13.002;2023-04-09T09:58:43;0.97;;;0.97;;
15071;SDS011;7635;56.696;13.002;2023-04-09T10:01:15;0.90;;;0.90;;
15071;SDS011;7635;56.696;13.002;2023-04-09T10:03:44;1.37;;;1.27;;
15071;SDS011;7635;56.696;13.002;2023-04-09T10:06:12;1.47;;;1.33;;
15071;SDS011;7635;56.696;13.002;2023-04-09T10:08:40;1.63;;;1.53;;
15071;SDS011;7635;56.696;13.002;2023-04-09T10:11:08;1.50;;;1.30;;
15071;SDS011;7635;56.696;13.002;2023-04-09T10:13:37;1.30;;;1.20;;
15071;SDS011;7635;56.696;13.002;2023-04-09T10:16:06;1.00;;;1.00;;
15071;SDS011;7635;56.696;13.002;2023-04-09T10:18:36;1.40;;;1.30;;
15071;SDS011;7635;56.696;13.002;2023-04-09T10:21:06;3.70;;;1.50;;
15071;SDS011;7635;56.696;13.002;2023-04-09T10:23:38;1.47;;;1.37;;
15071;SDS011;7635;56.696;13.002;2023-04-09T10:26:07;2.93;;;1.17;;
15071;SDS011;7635;56.696;13.002;2023-04-09T10:28:34;1.50;;;1.40;;
15071;SDS011;7635;56.696;13.002;2023-04-09T10:31:03;1.10;;;1.10;;
15071;SDS011;7635;56.696;13.002;2023-04-09T10:33:30;0.90;;;0.90;;
15071;SDS011;7635;56.696;13.002;2023-04-09T10:35:59;1.40;;;1.30;;
15071;SDS011;7635;56.696;13.002;2023-04-09T10:38:33;1.60;;;1.23;;
15071;SDS011;7635;56.696;13.002;2023-04-09T10:41:08;1.17;;;1.17;;
15071;SDS011;7635;56.696;13.002;2023-04-09T10:43:41;1.57;;;1.40;;
15071;SDS011;7635;56.696;13.002;2023-04-09T10:51:37;0.90;;;0.90;;
15071;SDS011;7635;56.696;13.002;2023-04-09T10:54:05;1.17;;;1.17;;
15071;SDS011;7635;56.696;13.002;2023-04-09T10:59:52;0.93;;;0.93;;
15071;SDS011;7635;56.696;13.002;2023-04-09T11:02:30;1.20;;;1.10;;
15071;SDS011;7635;56.696;13.002;2023-04-09T11:05:14;1.23;;;1.20;;
15071;SDS011;7635;56.696;13.002;2023-04-09T11:07:48;1.67;;;1.10;;
15071;SDS011;7635;56.696;13.002;2023-04-09T11:10:18;1.07;;;1.07;;
15071;SDS011;7635;56.696;13.002;2023-04-09T11:12:45;2.40;;;1.20;;
15071;SDS011;7635;56.696;13.002;2023-04-09T11:15:15;1.07;;;1.07;;
15071;SDS011;7635;56.696;13.002;2023-04-09T11:17:43;2.33;;;1.00;;
15071;SDS011;7635;56.696;13.002;2023-04-09T11:20:11;1.17;;;1.17;;
15071;SDS011;7635;56.696;13.002;2023-04-09T11:22:38;1.83;;;1.30;;
15071;SDS011;7635;56.696;13.002;2023-04-09T11:25:07;1.37;;;1.27;;
15071;SDS011;7635;56.696;13.002;2023-04-09T11:27:35;2.23;;;1.17;;
15071;SDS011;7635;56.696;13.002;2023-04-09T11:30:03;1.40;;;1.30;;
15071;SDS011;7635;56.696;13.002;2023-04-09T11:32:30;0.90;;;0.90;;
15071;SDS011;7635;56.696;13.002;2023-04-09T11:34:57;1.30;;;1.20;;
15071;SDS011;7635;56.696;13.002;2023-04-09T11:37:24;1.10;;;1.10;;
15071;SDS011;7635;56.696;13.002;2023-04-09T11:39:51;1.70;;;1.53;;
15071;SDS011;7635;56.696;13.002;2023-04-09T11:42:20;1.40;;;1.30;;
15071;SDS011;7635;56.696;13.002;2023-04-09T11:44:47;1.30;;;1.20;;
15071;SDS011;7635;56.696;13.002;2023-04-09T11:47:14;1.20;;;1.13;;
15071;SDS011;7635;56.696;13.002;2023-04-09T11:49:42;1.50;;;1.40;;
15071;SDS011;7635;56.696;13.002;2023-04-09T11:52:09;1.27;;;1.17;;
15071;SDS011;7635;56.696;13.002;2023-04-09T11:54:36;1.20;;;1.10;;
15071;SDS011;7635;56.696;13.002;2023-04-09T11:57:02;1.30;;;1.20;;
15071;SDS011;7635;56.696;13.002;2023-04-09T11:59:32;1.20;;;1.10;;
15071;SDS011;7635;56.696;13.002;2023-04-09T12:01:58;1.10;;;1.10;;
15071;SDS011;7635;56.696;13.002;2023-04-09T12:04:26;1.03;;;0.93;;
15071;SDS011;7635;56.696;13.002;2023-04-09T12:06:55;1.00;;;1.00;;
15071;SDS011;7635;56.696;13.002;2023-04-09T12:09:22;1.23;;;1.13;;
15071;SDS011;7635;56.696;13.002;2023-04-09T12:11:49;0.60;;;0.60;;
15071;SDS011;7635;56.696;13.002;2023-04-09T12:14:17;0.93;;;0.93;;
15071;SDS011;7635;56.696;13.002;2023-04-09T12:16:49;1.30;;;1.30;;
15071;SDS011;7635;56.696;13.002;2023-04-09T12:19:16;1.00;;;1.00;;
15071;SDS011;7635;56.696;13.002;2023-04-09T12:21:44;1.17;;;1.10;;
15071;SDS011;7635;56.696;13.002;2023-04-09T12:24:13;1.00;;;1.00;;
15071;SDS011;7635;56.696;13.002;2023-04-09T12:26:41;0.87;;;0.80;;
15071;SDS011;7635;56.696;13.002;2023-04-09T12:29:08;1.13;;;1.13;;
15071;SDS011;7635;56.696;13.002;2023-04-09T12:31:34;1.00;;;1.00;;
15071;SDS011;7635;56.696;13.002;2023-04-09T12:34:02;1.17;;;1.17;;
15071;SDS011;7635;56.696;13.002;2023-04-09T12:36:29;1.00;;;1.00;;
15071;SDS011;7635;56.696;13.002;2023-04-09T12:38:56;0.97;;;0.97;;
15071;SDS011;7635;56.696;13.002;2023-04-09T12:41:22;1.53;;;1.10;;
15071;SDS011;7635;56.696;13.002;2023-04-09T12:43:49;1.00;;;1.00;;
15071;SDS011;7635;56.696;13.002;2023-04-09T12:46:16;1.00;;;1.00;;
15071;SDS011;7635;56.696;13.002;2023-04-09T12:48:43;1.23;;;1.13;;
15071;SDS011;7635;56.696;13.002;2023-04-09T12:51:11;0.80;;;0.80;;
15071;SDS011;7635;56.696;13.002;2023-04-09T12:53:38;0.80;;;0.80;;
15071;SDS011;7635;56.696;13.002;2023-04-09T12:56:06;1.00;;;1.00;;
15071;SDS011;7635;56.696;13.002;2023-04-09T12:58:33;2.97;;;1.00;;
15071;SDS011;7635;56.696;13.002;2023-04-09T13:01:00;0.90;;;0.90;;
15071;SDS011;7635;56.696;13.002;2023-04-09T13:03:28;1.03;;;1.00;;
15071;SDS011;7635;56.696;13.002;2023-04-09T13:05:55;0.90;;;0.90;;
15071;SDS011;7635;56.696;13.002;2023-04-09T13:08:23;0.93;;;0.93;;
15071;SDS011;7635;56.696;13.002;2023-04-09T13:10:49;1.10;;;1.10;;
15071;SDS011;7635;56.696;13.002;2023-04-09T13:13:16;1.20;;;1.10;;
15071;SDS011;7635;56.696;13.002;2023-04-09T13:15:43;0.90;;;0.90;;
15071;SDS011;7635;56.696;13.002;2023-04-09T13:18:10;0.90;;;0.90;;
15071;SDS011;7635;56.696;13.002;2023-04-09T13:20:37;1.00;;;1.00;;
15071;SDS011;7635;56.696;13.002;2023-04-09T13:23:05;1.10;;;1.10;;
15071;SDS011;7635;56.696;13.002;2023-04-09T13:25:33;0.90;;;0.90;;
15071;SDS011;7635;56.696;13.002;2023-04-09T13:27:59;1.00;;;1.00;;
15071;SDS011;7635;56.696;13.002;2023-04-09T13:30:26;1.00;;;1.00;;
15071;SDS011;7635;56.696;13.002;2023-04-09T13:32:53;1.17;;;1.17;;
15071;SDS011;7635;56.696;13.002;2023-04-09T13:35:20;1.53;;;1.43;;
15071;SDS011;7635;56.696;13.002;2023-04-09T13:37:46;2.83;;;1.40;;
15071;SDS011;7635;56.696;13.002;2023-04-09T13:40:13;1.60;;;1.50;;
15071;SDS011;7635;56.696;13.002;2023-04-09T13:42:41;1.00;;;1.00;;
15071;SDS011;7635;56.696;13.002;2023-04-09T13:45:08;1.40;;;1.30;;
15071;SDS011;7635;56.696;13.002;2023-04-09T13:47:35;1.23;;;1.13;;
15071;SDS011;7635;56.696;13.002;2023-04-09T13:50:02;1.30;;;1.20;;
15071;SDS011;7635;56.696;13.002;2023-04-09T13:52:30;1.33;;;1.27;;
15071;SDS011;7635;56.696;13.002;2023-04-09T13:54:56;1.40;;;1.30;;
15071;SDS011;7635;56.696;13.002;2023-04-09T13:57:23;1.13;;;1.07;;
15071;SDS011;7635;56.696;13.002;2023-04-09T13:59:51;1.17;;;1.07;;
15071;SDS011;7635;56.696;13.002;2023-04-09T14:02:18;1.53;;;1.20;;
15071;SDS011;7635;56.696;13.002;2023-04-09T14:04:45;0.80;;;0.80;;
15071;SDS011;7635;56.696;13.002;2023-04-09T14:07:11;1.77;;;1.20;;
15071;SDS011;7635;56.696;13.002;2023-04-09T14:09:38;1.40;;;1.30;;
15071;SDS011;7635;56.696;13.002;2023-04-09T14:12:05;1.63;;;1.40;;
15071;SDS011;7635;56.696;13.002;2023-04-09T14:14:31;1.67;;;1.20;;
15071;SDS011;7635;56.696;13.002;2023-04-09T14:16:59;1.10;;;1.00;;
15071;SDS011;7635;56.696;13.002;2023-04-09T14:19:26;1.07;;;1.07;;
15071;SDS011;7635;56.696;13.002;2023-04-09T14:21:53;1.87;;;1.40;;
15071;SDS011;7635;56.696;13.002;2023-04-09T14:24:20;1.50;;;1.40;;
15071;SDS011;7635;56.696;13.002;2023-04-09T14:26:47;1.33;;;1.23;;
15071;SDS011;7635;56.696;13.002;2023-04-09T14:29:14;1.47;;;1.37;;
15071;SDS011;7635;56.696;13.002;2023-04-09T14:31:41;1.40;;;1.30;;
15071;SDS011;7635;56.696;13.002;2023-04-09T14:34:09;1.13;;;1.03;;
15071;SDS011;7635;56.696;13.002;2023-04-09T14:36:36;1.53;;;1.20;;
15071;SDS011;7635;56.696;13.002;2023-04-09T14:39:02;1.30;;;1.20;;
15071;SDS011;7635;56.696;13.002;2023-04-09T14:41:29;1.10;;;1.00;;
15071;SDS011;7635;56.696;13.002;2023-04-09T14:43:58;1.00;;;1.00;;
15071;SDS011;7635;56.696;13.002;2023-04-09T14:46:24;1.30;;;1.20;;
15071;SDS011;7635;56.696;13.002;2023-04-09T14:48:51;1.13;;;1.10;;
15071;SDS011;7635;56.696;13.002;2023-04-09T14:51:19;1.30;;;1.20;;
15071;SDS011;7635;56.696;13.002;2023-04-09T14:53:47;1.20;;;1.17;;
15071;SDS011;7635;56.696;13.002;2023-04-09T14:56:14;1.20;;;1.20;;
15071;SDS011;7635;56.696;13.002;2023-04-09T14:58:40;0.97;;;0.97;;